Time;durP1;ratioP1;P1;durP2;ratioP2;P2;SDS_P1;SDS_P2;PMS_P1;PMS_P2;Temp;Humidity;BMP_temperature;BMP_pressure;BME280_temperature;BME280_humidity;BME280_pressure;Samples;Min_cycle;Max_cycle;Signal;HPM_P1;HPM_P2
2023/11/04 00:01:20;;;;;;;15.85;2.00;;;;;;;14.69;57.98;98607.16;4974972;28;97065;-78
2023/11/04 00:03:46;;;;;;;13.73;1.58;;;;;;;14.25;59.08;98600.25;4973192;28;98818;-78
2023/11/04 00:06:13;;;;;;;11.13;2.17;;;;;;;14.02;60.32;98603.19;4971682;28;101502;-76
2023/11/04 00:08:40;;;;;;;13.40;1.73;;;;;;;14.02;60.12;98595.22;4969423;28;96799;-81
2023/11/04 00:11:10;;;;;;;13.32;2.45;;;;;;;13.91;60.82;98598.78;4978116;28;96956;-80
2023/11/04 00:13:36;;;;;;;11.77;2.28;;;;;;;14.05;60.51;98602.91;4974891;28;97762;-81
2023/11/04 00:16:08;;;;;;;8.90;2.08;;;;;;;13.84;60.75;98600.25;4974643;28;97785;-81
2023/11/04 00:18:35;;;;;;;6.88;2.05;;;;;;;13.83;61.10;98609.16;4976820;28;96725;-80
2023/11/04 00:21:03;;;;;;;8.00;1.67;;;;;;;13.90;60.37;98605.88;4974579;28;96879;-80
2023/11/04 00:23:30;;;;;;;9.70;1.48;;;;;;;13.89;60.56;98612.16;4973710;28;99638;-79
2023/11/04 00:25:56;;;;;;;11.73;1.67;;;;;;;13.78;nan;98620.19;4974242;28;99228;-80
2023/11/04 00:28:25;;;;;;;8.45;1.52;;;;;;;13.83;60.41;98617.13;4972716;28;96946;-80
2023/11/04 00:30:52;;;;;;;28.58;7.07;;;;;;;13.77;60.59;98621.13;4963706;28;96859;-79
2023/11/04 00:33:20;;;;;;;9.10;2.55;;;;;;;13.66;60.26;98605.22;4971886;28;98935;-80
2023/11/04 00:35:46;;;;;;;6.57;1.40;;;;;;;13.56;61.29;98614.91;4973060;28;97728;-80
2023/11/04 00:38:13;;;;;;;9.30;1.63;;;;;;;13.62;60.93;98621.53;4972674;28;96702;-77
2023/11/04 00:40:41;;;;;;;10.48;1.90;;;;;;;13.66;60.81;98620.31;4970938;28;97311;-77
2023/11/04 00:43:08;;;;;;;8.60;1.65;;;;;;;13.84;60.39;98618.81;4968020;28;99078;-77
2023/11/04 00:45:34;;;;;;;4.35;1.38;;;;;;;13.89;60.11;98622.78;4971544;28;96689;-78
2023/11/04 00:48:01;;;;;;;7.60;1.83;;;;;;;14.00;59.36;98627.19;4971367;28;96968;-77
2023/11/04 00:50:29;;;;;;;5.13;1.40;;;;;;;14.03;58.91;98632.25;4973048;28;96914;-76
2023/11/04 00:52:55;;;;;;;12.85;2.00;;;;;;;14.11;58.74;98637.75;4970797;28;101460;-76
2023/11/04 00:55:22;;;;;;;12.68;2.13;;;;;;;14.11;58.96;98637.75;4970378;28;98932;-77
2023/11/04 00:57:48;;;;;;;8.00;1.60;;;;;;;14.09;58.91;98644.19;4972359;28;97839;-76
2023/11/04 01:00:22;;;;;;;12.50;1.95;;;;;;;13.93;59.00;98641.94;4973506;28;96808;-77
2023/11/04 01:02:49;;;;;;;8.68;1.48;;;;;;;13.72;59.43;98641.06;4966556;28;99356;-77
2023/11/04 01:05:15;;;;;;;10.13;1.70;;;;;;;13.52;59.88;98645.34;4971208;28;98832;-78
2023/11/04 01:07:43;;;;;;;8.65;1.85;;;;;;;13.61;59.81;98649.88;4970995;28;97225;-76
2023/11/04 01:10:10;;;;;;;10.98;1.40;;;;;;;13.50;60.29;98649.91;4972714;28;96833;-77
2023/11/04 01:12:37;;;;;;;11.10;1.83;;;;;;;13.59;60.15;98653.66;4969110;28;101490;-75
2023/11/04 01:15:04;;;;;;;10.82;1.52;;;;;;;13.59;59.75;98651.81;4971914;28;99080;-81
2023/11/04 01:17:30;;;;;;;16.67;1.90;;;;;;;13.56;59.91;98652.91;4974750;28;97615;-81
2023/11/04 01:19:56;;;;;;;12.70;1.60;;;;;;;13.80;58.87;98655.38;4967415;28;96871;-81
2023/11/04 01:22:23;;;;;;;10.32;1.88;;;;;;;13.74;59.33;98653.22;4970313;28;99170;-80
2023/11/04 01:24:51;;;;;;;10.80;1.63;;;;;;;13.87;59.30;98659.22;4978746;28;99285;-81
2023/11/04 01:27:17;;;;;;;8.27;1.40;;;;;;;13.81;58.29;98656.22;4971153;28;96744;-80
2023/11/04 01:29:44;;;;;;;9.65;1.45;;;;;;;13.60;59.15;98653.50;4971097;28;96765;-81
2023/11/04 01:32:11;;;;;;;11.52;1.75;;;;;;;13.89;58.33;98651.13;4975853;28;101209;-80
2023/11/04 01:34:37;;;;;;;11.43;1.90;;;;;;;13.99;58.03;98652.06;4971737;28;98823;-80
2023/11/04 01:37:04;;;;;;;8.15;1.85;;;;;;;13.93;57.97;98657.88;4966964;28;98555;-77
2023/11/04 01:39:30;;;;;;;5.43;1.40;;;;;;;14.03;57.39;98653.50;4971278;28;96820;-77
2023/11/04 01:42:04;;;;;;;6.00;1.30;;;;;;;14.08;57.16;98659.28;4970621;28;98859;-76
2023/11/04 01:44:31;;;;;;;7.75;1.52;;;;;;;14.02;57.33;98664.25;4965286;28;98707;-76
2023/11/04 01:46:57;;;;;;;11.27;1.80;;;;;;;13.89;57.73;98659.94;4971703;28;96692;-75
2023/11/04 01:49:24;;;;;;;6.65;1.58;;;;;;;13.85;57.65;98662.97;4972067;28;96779;-76
2023/11/04 01:51:52;;;;;;;9.68;2.20;;;;;;;13.86;57.30;98662.84;4970929;28;97590;-76
2023/11/04 01:54:18;;;;;;;5.25;1.52;;;;;;;13.71;57.62;98661.47;4966847;28;100244;-76
2023/11/04 01:56:44;;;;;;;;;;;;;;;13.58;58.42;98666.06;4968390;28;96775;-76
2023/11/04 01:59:13;;;;;;;8.48;1.60;;;;;;;13.65;58.34;98664.59;4971379;28;96913;-76
2023/11/04 02:01:41;;;;;;;11.48;1.48;;;;;;;13.68;58.15;98660.84;4964798;28;99334;-76
2023/11/04 02:04:08;;;;;;;13.38;1.50;;;;;;;13.62;58.18;98672.81;4971102;28;101508;-76
2023/11/04 02:06:34;;;;;;;13.27;1.40;;;;;;;13.74;58.04;98671.81;4970442;28;97097;-75
2023/11/04 02:09:01;;;;;;;8.40;1.85;;;;;;;13.52;58.29;98678.00;4971313;28;96792;-76
2023/11/04 02:11:28;;;;;;;8.43;1.58;;;;;;;13.65;58.23;98675.22;4969063;28;99166;-76
2023/11/04 02:13:54;;;;;;;9.38;1.90;;;;;;;13.57;58.48;98678.50;4967097;28;100773;-76
2023/11/04 02:16:22;;;;;;;10.65;1.70;;;;;;;13.32;59.11;98684.06;4969256;28;96815;-75
2023/11/04 02:18:49;;;;;;;10.27;1.50;;;;;;;13.47;59.09;98682.81;4970024;28;96838;-77
2023/11/04 02:21:17;;;;;;;9.73;1.95;;;;;;;13.42;59.04;98681.50;4965732;28;99263;-76
2023/11/04 02:23:43;;;;;;;5.55;1.30;;;;;;;13.44;59.00;98685.75;4966944;28;98839;-76
2023/11/04 02:26:10;;;;;;;7.55;1.25;;;;;;;13.41;58.76;98680.66;4972080;28;96788;-75
2023/11/04 02:28:36;;;;;;;8.30;1.80;;;;;;;13.32;58.70;98678.75;4967642;28;97158;-75
2023/11/04 02:31:02;;;;;;;8.88;1.60;;;;;;;13.37;58.77;98681.88;4968166;28;98817;-75
2023/11/04 02:33:28;;;;;;;9.00;1.40;;;;;;;13.34;58.58;98699.84;4970233;28;98676;-76
2023/11/04 02:35:55;;;;;;;7.50;1.95;;;;;;;13.10;59.20;98692.81;4971694;28;98781;-76
2023/11/04 02:38:23;;;;;;;10.80;1.73;;;;;;;12.93;60.03;98700.41;4966710;28;96944;-76
2023/11/04 02:40:50;;;;;;;8.35;1.42;;;;;;;12.74;60.11;98700.94;4969058;28;99039;-76
2023/11/04 02:43:16;;;;;;;10.32;1.40;;;;;;;12.91;59.90;98703.16;4965629;28;99811;-76
2023/11/04 02:45:43;;;;;;;7.80;2.05;;;;;;;12.89;59.92;98705.09;4967794;28;96795;-76
2023/11/04 02:48:09;;;;;;;11.75;1.90;;;;;;;12.78;60.22;98713.03;4970110;28;96756;-75
2023/11/04 02:50:35;;;;;;;9.57;1.90;;;;;;;12.96;59.58;98716.91;4969475;28;99325;-75
2023/11/04 02:53:02;;;;;;;11.15;1.90;;;;;;;12.81;60.33;98717.22;4963768;28;98921;-75
2023/11/04 02:55:30;;;;;;;9.18;2.05;;;;;;;12.67;60.24;98716.47;4969595;28;97011;-76
2023/11/04 02:57:56;;;;;;;16.67;1.80;;;;;;;12.70;60.27;98720.72;4974570;28;99862;-75
2023/11/04 03:00:23;;;;;;;9.25;2.13;;;;;;;12.53;60.78;98718.50;4969254;28;99097;-76
2023/11/04 03:02:50;;;;;;;13.48;2.15;;;;;;;12.58;60.52;98724.28;4971253;28;98999;-75
2023/11/04 03:05:16;;;;;;;8.30;1.65;;;;;;;12.63;60.13;98727.44;4965669;28;97564;-76
2023/11/04 03:07:43;;;;;;;11.35;1.83;;;;;;;12.57;60.51;98730.53;4964430;28;96868;-74
2023/11/04 03:10:10;;;;;;;10.07;1.83;;;;;;;12.35;60.74;98724.19;4968952;28;99284;-74
2023/11/04 03:12:37;;;;;;;7.93;1.65;;;;;;;12.50;60.49;98724.00;4973347;28;98959;-74
2023/11/04 03:15:05;;;;;;;9.25;2.03;;;;;;;12.36;60.88;98720.59;4978731;28;96748;-75
2023/11/04 03:17:32;;;;;;;8.57;1.52;;;;;;;12.50;60.67;98718.72;4979948;28;97049;-75
2023/11/04 03:19:58;;;;;;;7.65;1.65;;;;;;;12.40;60.75;98726.53;4982333;28;98926;-75
2023/11/04 03:22:24;;;;;;;6.53;1.42;;;;;;;12.41;60.76;98724.69;4979481;28;98827;-75
2023/11/04 03:24:51;;;;;;;11.55;1.80;;;;;;;12.42;60.77;98721.94;4971673;28;96853;-76
2023/11/04 03:27:17;;;;;;;9.25;1.65;;;;;;;12.48;60.38;98731.22;4980985;28;97118;-74
2023/11/04 03:29:45;;;;;;;7.30;1.63;;;;;;;12.55;60.24;98727.16;4983144;28;101421;-75
2023/11/04 03:32:11;;;;;;;10.50;1.67;;;;;;;12.59;59.92;98726.84;4977667;28;99082;-75
2023/11/04 03:34:38;;;;;;;11.20;2.85;;;;;;;12.35;60.68;98732.13;4984314;28;96798;-75
2023/11/04 03:37:05;;;;;;;10.20;1.88;;;;;;;12.47;60.60;98730.38;4982249;28;97441;-76
2023/11/04 03:39:32;;;;;;;3.60;1.25;;;;;;;12.29;60.79;98722.00;4986475;28;97828;-75
2023/11/04 03:41:59;;;;;;;9.07;1.60;;;;;;;12.27;61.18;98731.84;4971582;28;99204;-75
2023/11/04 03:44:25;;;;;;;18.20;1.95;;;;;;;12.32;60.78;98729.75;4985926;28;96621;-76
2023/11/04 03:46:54;;;;;;;7.95;1.63;;;;;;;12.33;60.73;98722.66;4977034;28;96965;-75
2023/11/04 03:49:21;;;;;;;10.43;1.67;;;;;;;12.38;60.46;98723.97;4970936;28;99343;-78
2023/11/04 03:51:47;;;;;;;8.45;2.05;;;;;;;12.22;60.99;98723.41;4973937;28;99437;-78
2023/11/04 03:54:14;;;;;;;9.10;1.70;;;;;;;12.31;60.75;98724.56;4973483;28;96740;-78
2023/11/04 03:56:40;;;;;;;8.07;1.50;;;;;;;12.23;60.94;98737.50;4972640;28;96976;-78
2023/11/04 03:59:06;;;;;;;11.88;2.08;;;;;;;12.22;60.87;98734.00;4968978;28;97799;-76
2023/11/04 04:01:38;;;;;;;7.07;1.50;;;;;;;12.14;61.17;98727.63;4972267;28;99056;-75
2023/11/04 04:04:07;;;;;;;7.88;1.75;;;;;;;11.97;61.81;98723.53;4972485;28;96831;-75
2023/11/04 04:06:34;;;;;;;13.20;1.90;;;;;;;11.93;61.91;98724.72;4970076;28;96845;-75
2023/11/04 04:09:00;;;;;;;8.43;1.50;;;;;;;12.03;61.93;98720.44;4968507;28;99300;-75
2023/11/04 04:11:26;;;;;;;14.35;1.77;;;;;;;12.06;61.76;98722.88;4973962;28;101283;-79
2023/11/04 04:13:53;;;;;;;11.40;1.60;;;;;;;12.09;61.79;98716.50;4973614;28;97140;-79
2023/11/04 04:16:22;;;;;;;11.52;2.05;;;;;;;11.92;62.28;98712.44;4973487;28;96834;-78
2023/11/04 04:18:48;;;;;;;7.40;1.42;;;;;;;12.07;62.00;98727.22;4968490;28;100858;-79
2023/11/04 04:21:16;;;;;;;14.82;1.88;;;;;;;11.96;61.94;98727.13;4971951;28;97584;-78
2023/11/04 04:23:43;;;;;;;8.55;1.23;;;;;;;11.85;62.13;98716.50;4966244;28;98615;-78
2023/11/04 04:26:09;;;;;;;6.13;1.40;;;;;;;12.03;61.76;98719.59;4972801;28;96737;-78
2023/11/04 04:28:36;;;;;;;9.25;1.75;;;;;;;12.07;61.69;98721.94;4971535;28;99301;-79
2023/11/04 04:31:02;;;;;;;6.28;1.67;;;;;;;12.11;61.51;98723.38;4970461;28;98881;-80
2023/11/04 04:33:29;;;;;;;9.65;2.10;;;;;;;11.95;61.95;98728.94;4973486;28;96684;-79
2023/11/04 04:35:55;;;;;;;11.30;1.50;;;;;;;11.96;62.30;98729.78;4973174;28;97326;-79
2023/11/04 04:38:24;;;;;;;6.85;1.40;;;;;;;11.82;62.47;98733.44;4970642;28;98988;-79
2023/11/04 04:40:50;;;;;;;11.15;2.08;;;;;;;11.84;62.44;98728.03;4971468;28;99135;-81
2023/11/04 04:43:17;;;;;;;8.27;1.50;;;;;;;12.03;61.88;98722.25;4971316;28;97260;-80
2023/11/04 04:45:43;;;;;;;5.72;1.38;;;;;;;12.04;61.34;98726.59;4975014;28;96879;-80
2023/11/04 04:48:10;;;;;;;6.70;1.48;;;;;;;11.85;62.62;98727.09;4971489;28;99196;-81
2023/11/04 04:50:36;;;;;;;7.65;1.63;;;;;;;11.80;62.51;98721.28;4972286;28;99299;-80
2023/11/04 04:53:03;;;;;;;7.47;1.60;;;;;;;11.87;62.38;98711.94;4971919;28;97581;-81
2023/11/04 04:55:30;;;;;;;7.13;1.48;;;;;;;11.79;62.36;98716.94;4969426;28;98531;-81
2023/11/04 04:57:57;;;;;;;7.75;2.55;;;;;;;11.88;62.62;98721.56;4970129;28;96993;-81
2023/11/04 05:00:23;;;;;;;7.78;1.42;;;;;;;11.86;62.18;98720.84;4971371;28;102086;-81
2023/11/04 05:02:50;;;;;;;7.05;1.13;;;;;;;11.80;62.22;98724.78;4972574;28;96758;-81
2023/11/04 05:05:16;;;;;;;8.48;1.65;;;;;;;12.10;61.85;98726.97;4977274;28;98408;-80
2023/11/04 05:07:42;;;;;;;8.82;1.58;;;;;;;12.17;61.47;98727.38;4973078;28;98016;-81
2023/11/04 05:10:10;;;;;;;7.22;1.52;;;;;;;11.95;61.37;98723.63;4979072;28;99188;-81
2023/11/04 05:12:38;;;;;;;9.43;1.48;;;;;;;11.98;61.89;98725.22;4970981;28;96827;-80
2023/11/04 05:15:05;;;;;;;6.57;1.45;;;;;;;12.14;61.08;98725.78;4973435;28;97125;-80
2023/11/04 05:17:32;;;;;;;5.10;1.40;;;;;;;12.13;61.34;98733.84;4970551;28;98196;-80
2023/11/04 05:19:58;;;;;;;12.52;1.88;;;;;;;11.91;62.04;98724.84;4972136;28;98779;-81
2023/11/04 05:22:25;;;;;;;8.50;1.50;;;;;;;12.19;61.09;98723.66;4971411;28;96791;-81
2023/11/04 05:24:51;;;;;;;7.53;1.73;;;;;;;11.98;61.59;98722.59;4977721;28;97027;-81
2023/11/04 05:27:18;;;;;;;3.92;1.27;;;;;;;11.95;61.79;98726.28;4975109;28;99924;-80
2023/11/04 05:29:45;;;;;;;6.75;1.50;;;;;;;12.05;61.91;98728.28;4971221;28;99289;-80
2023/11/04 05:32:12;;;;;;;9.20;1.70;;;;;;;12.03;61.81;98723.09;4971468;28;96714;-78
2023/11/04 05:34:38;;;;;;;6.63;1.38;;;;;;;12.26;60.89;98727.56;4984871;28;96784;-81
2023/11/04 05:37:05;;;;;;;11.57;1.80;;;;;;;12.15;61.09;98735.41;4980064;28;97778;-80
2023/11/04 05:39:31;;;;;;;7.60;2.03;;;;;;;12.27;60.80;98731.84;4980800;28;99397;-80
2023/11/04 05:41:57;;;;;;;6.82;1.60;;;;;;;12.27;60.87;98731.84;4978610;28;97067;-80
2023/11/04 05:44:25;;;;;;;6.50;1.58;;;;;;;12.35;60.21;98731.28;4979927;28;96697;-80
2023/11/04 05:46:52;;;;;;;8.23;2.05;;;;;;;12.12;61.15;98738.31;4979892;28;99250;-79
2023/11/04 05:49:19;;;;;;;6.70;1.67;;;;;;;12.27;60.92;98723.91;4978592;28;98812;-80
2023/11/04 05:51:45;;;;;;;9.65;2.10;;;;;;;12.20;60.92;98735.09;4985226;28;96855;-80
2023/11/04 05:54:12;;;;;;;6.57;2.00;;;;;;;12.17;60.72;98728.22;4973578;28;96824;-79
2023/11/04 05:56:38;;;;;;;4.97;1.27;;;;;;;12.23;61.03;98730.41;4979239;28;100766;-80
2023/11/04 05:59:05;;;;;;;11.00;1.90;;;;;;;12.22;61.05;98730.50;4976104;28;99158;-79
2023/11/04 06:01:31;;;;;;;8.18;1.58;;;;;;;12.23;61.09;98733.06;4971876;28;97155;-80
2023/11/04 06:03:59;;;;;;;11.93;1.73;;;;;;;12.29;60.81;98726.47;4985565;28;97374;-79
2023/11/04 06:06:25;;;;;;;14.35;1.83;;;;;;;12.05;61.83;98734.41;4980280;28;99653;-78
2023/11/04 06:08:52;;;;;;;11.07;2.03;;;;;;;12.24;61.28;98742.69;4976811;28;98813;-78
2023/11/04 06:11:19;;;;;;;15.48;1.45;;;;;;;12.10;61.38;98736.72;4986271;28;96754;-78
2023/11/04 06:13:45;;;;;;;9.20;1.85;;;;;;;12.25;61.15;98730.31;4982935;28;96911;-79
2023/11/04 06:16:12;;;;;;;8.77;1.60;;;;;;;12.12;61.05;98740.97;4978070;28;99530;-78
2023/11/04 06:18:38;;;;;;;8.50;2.28;;;;;;;12.01;61.66;98738.25;4984613;28;99000;-77
2023/11/04 06:21:06;;;;;;;10.30;1.98;;;;;;;12.07;61.36;98735.16;4975986;28;102399;-76
2023/11/04 06:23:32;;;;;;;14.90;2.05;;;;;;;12.06;61.63;98736.13;4973493;28;98665;-76
2023/11/04 06:25:58;;;;;;;10.00;1.70;;;;;;;12.12;61.46;98732.16;4976668;28;99324;-76
2023/11/04 06:28:24;;;;;;;;;;;;;;;12.08;61.47;98736.81;4978990;28;98884;-76
2023/11/04 06:30:50;;;;;;;6.57;1.40;;;;;;;12.05;61.50;98728.28;4970660;28;96793;-76
2023/11/04 06:33:17;;;;;;;13.10;1.75;;;;;;;12.34;60.86;98741.03;4968549;28;96756;-76
2023/11/04 06:35:43;;;;;;;7.70;1.70;;;;;;;12.23;61.13;98734.84;4965522;28;98061;-76
2023/11/04 06:38:11;;;;;;;13.00;1.65;;;;;;;12.21;60.63;98732.31;4966286;28;99075;-77
2023/11/04 06:40:38;;;;;;;8.13;1.60;;;;;;;12.17;60.72;98730.03;4963317;28;96815;-77
2023/11/04 06:43:04;;;;;;;9.82;1.45;;;;;;;12.01;61.88;98730.31;4970737;28;97955;-76
2023/11/04 06:45:30;;;;;;;9.85;1.90;;;;;;;12.20;60.74;98733.31;4967317;28;98256;-76
2023/11/04 06:47:59;;;;;;;10.30;1.77;;;;;;;12.39;60.91;98730.13;4970125;28;99044;-76
2023/11/04 06:50:26;;;;;;;6.93;1.52;;;;;;;12.58;59.77;98733.09;4969882;28;97266;-76
2023/11/04 06:52:52;;;;;;;9.25;1.67;;;;;;;12.60;59.77;98738.28;4968954;28;97199;-76
2023/11/04 06:55:20;;;;;;;7.88;1.50;;;;;;;12.51;59.68;98737.16;4967170;28;100569;-76
2023/11/04 06:57:46;;;;;;;8.70;1.65;;;;;;;12.20;60.65;98732.44;4966949;28;98901;-76
2023/11/04 07:00:14;;;;;;;9.65;1.45;;;;;;;12.21;60.92;98724.38;4970044;28;96853;-76
2023/11/04 07:02:41;;;;;;;11.02;1.88;;;;;;;12.64;59.43;98734.44;4972834;28;96848;-76
2023/11/04 07:05:09;;;;;;;10.32;1.90;;;;;;;12.56;59.85;98728.84;4969423;28;101270;-77
2023/11/04 07:07:37;;;;;;;6.53;1.70;;;;;;;12.87;59.17;98728.19;4973943;28;98236;-76
2023/11/04 07:10:04;;;;;;;7.57;1.77;;;;;;;12.61;59.55;98727.53;4971611;28;97910;-79
2023/11/04 07:12:35;;;;;;;6.63;1.98;;;;;;;12.51;59.83;98723.06;4970663;28;98710;-79
2023/11/04 07:15:01;;;;;;;8.48;1.85;;;;;;;12.53;60.32;98729.09;4965588;28;99209;-79
2023/11/04 07:17:28;;;;;;;6.13;1.70;;;;;;;12.45;60.64;98734.97;4963720;28;99298;-77
2023/11/04 07:19:56;;;;;;;8.05;1.77;;;;;;;12.39;60.38;98732.78;4966227;28;97731;-76
2023/11/04 07:22:24;;;;;;;11.45;2.47;;;;;;;12.74;59.52;98740.69;4966494;28;97177;-79
2023/11/04 07:24:51;;;;;;;15.48;2.15;;;;;;;12.49;60.25;98730.28;4965471;28;97656;-78
2023/11/04 07:27:17;;;;;;;8.38;1.85;;;;;;;12.46;60.63;98730.50;4965354;28;98848;-76
2023/11/04 07:29:46;;;;;;;13.32;1.80;;;;;;;12.38;60.88;98731.09;4969657;28;98926;-80
2023/11/04 07:32:12;;;;;;;6.85;1.50;;;;;;;12.53;60.21;98737.03;4971891;28;96905;-80
2023/11/04 07:34:40;;;;;;;9.25;1.60;;;;;;;12.56;60.09;98732.34;4970408;28;101614;-80
2023/11/04 07:37:07;;;;;;;11.00;1.98;;;;;;;12.59;60.42;98729.47;4970230;28;100762;-79
2023/11/04 07:39:38;;;;;;;8.75;1.77;;;;;;;12.39;60.42;98727.47;4965873;28;97037;-70
2023/11/04 07:42:07;;;;;;;5.45;1.73;;;;;;;12.73;59.43;98723.94;4963308;28;99310;-76
2023/11/04 07:44:34;;;;;;;7.20;2.00;;;;;;;12.90;59.01;98727.13;4961962;28;99066;-78
2023/11/04 07:47:03;;;;;;;6.03;1.40;;;;;;;12.85;59.21;98721.34;4962557;28;98830;-78
2023/11/04 07:49:29;;;;;;;5.38;1.67;;;;;;;12.82;58.83;98711.81;4962366;28;97737;-78
2023/11/04 07:51:56;;;;;;;6.25;1.70;;;;;;;12.80;59.18;98711.09;4964998;28;99367;-78
2023/11/04 07:54:22;;;;;;;10.07;1.75;;;;;;;12.76;59.40;98707.00;4962577;28;101940;-79
2023/11/04 07:56:49;;;;;;;10.45;1.77;;;;;;;12.88;58.96;98707.84;4964446;28;97572;-78
2023/11/04 07:59:16;;;;;;;10.73;1.92;;;;;;;13.00;58.81;98707.75;4960083;28;99299;-77
2023/11/04 08:01:43;;;;;;;3.83;1.20;;;;;;;13.04;58.22;98706.56;4965873;28;97229;-78
2023/11/04 08:04:11;;;;;;;5.20;1.30;;;;;;;13.10;58.09;98698.13;4964620;28;99420;-77
2023/11/04 08:06:37;;;;;;;13.05;2.17;;;;;;;13.08;57.72;98696.53;4962124;28;101049;-78
2023/11/04 08:09:04;;;;;;;8.18;1.88;;;;;;;12.83;58.18;98692.31;4960109;28;97640;-78
2023/11/04 08:11:31;;;;;;;5.43;1.80;;;;;;;12.99;58.22;98690.16;4967303;28;97193;-79
2023/11/04 08:13:57;;;;;;;7.15;1.58;;;;;;;13.08;58.14;98688.59;4968184;28;99022;-78
2023/11/04 08:16:23;;;;;;;6.75;1.25;;;;;;;13.12;57.56;98687.41;4969840;28;99378;-78
2023/11/04 08:18:50;;;;;;;10.25;1.55;;;;;;;13.29;57.16;98683.44;4970665;28;97204;-77
2023/11/04 08:21:18;;;;;;;7.90;1.60;;;;;;;13.46;56.59;98682.94;4971506;28;97287;-78
2023/11/04 08:23:44;;;;;;;5.07;1.63;;;;;;;13.44;56.23;98683.09;4968358;28;98795;-78
2023/11/04 08:26:11;;;;;;;9.65;1.70;;;;;;;13.40;55.84;98681.63;4970142;28;98984;-78
2023/11/04 08:28:37;;;;;;;5.75;1.70;;;;;;;13.51;55.78;98684.28;4969168;28;96819;-78
2023/11/04 08:31:04;;;;;;;6.78;1.65;;;;;;;13.58;55.60;98679.34;4966706;28;97592;-78
2023/11/04 08:33:31;;;;;;;13.80;1.92;;;;;;;13.27;56.33;98678.25;4969241;28;99025;-77
2023/11/04 08:35:58;;;;;;;3.60;1.08;;;;;;;13.39;55.82;98671.97;4967795;28;98089;-77
2023/11/04 08:38:28;;;;;;;9.48;1.77;;;;;;;13.48;55.29;98681.03;4968228;28;97174;-79
2023/11/04 08:40:55;;;;;;;5.45;1.58;;;;;;;13.61;55.08;98671.09;4967708;28;100673;-77
2023/11/04 08:43:22;;;;;;;8.48;1.70;;;;;;;13.96;54.71;98676.22;4966812;28;99264;-78
2023/11/04 08:45:49;;;;;;;6.13;1.90;;;;;;;13.82;54.22;98665.88;4967738;28;98792;-79
2023/11/04 08:48:15;;;;;;;6.80;1.23;;;;;;;14.07;53.67;98672.66;4965462;28;96750;-78
2023/11/04 08:50:42;;;;;;;10.00;1.70;;;;;;;14.20;52.95;98668.03;4964061;28;96748;-77
2023/11/04 08:53:08;;;;;;;9.82;1.77;;;;;;;14.46;52.85;98665.88;4967226;28;99374;-78
2023/11/04 08:55:36;;;;;;;4.13;1.10;;;;;;;14.48;52.01;98666.59;4966577;28;99247;-77
2023/11/04 08:58:02;;;;;;;4.13;1.38;;;;;;;14.49;51.57;98666.50;4973292;28;97184;-78
2023/11/04 09:00:29;;;;;;;6.03;1.20;;;;;;;14.55;51.60;98665.97;4967535;28;97905;-78
2023/11/04 09:02:55;;;;;;;4.72;1.50;;;;;;;14.56;51.61;98667.66;4960606;28;104107;-77
2023/11/04 09:05:22;;;;;;;5.82;1.20;;;;;;;14.70;50.92;98669.97;4964638;28;98874;-78
2023/11/04 09:07:49;;;;;;;4.97;1.13;;;;;;;14.59;51.40;98663.88;4971062;28;97077;-78
2023/11/04 09:10:16;;;;;;;7.72;1.10;;;;;;;14.50;51.08;98668.19;4968026;28;97694;-77
2023/11/04 09:12:44;;;;;;;4.15;1.23;;;;;;;14.46;50.50;98660.56;4961613;28;98898;-76
2023/11/04 09:15:11;;;;;;;2.70;1.05;;;;;;;14.41;51.02;98663.63;4962699;28;99001;-78
2023/11/04 09:17:38;;;;;;;4.40;1.00;;;;;;;14.77;50.76;98672.13;4969082;28;97349;-79
2023/11/04 09:20:06;;;;;;;2.83;1.20;;;;;;;14.82;49.87;98676.06;4968828;28;96965;-80
2023/11/04 09:22:32;;;;;;;6.40;1.63;;;;;;;14.63;49.68;98671.50;4970770;28;99664;-79
2023/11/04 09:25:02;;;;;;;4.65;1.10;;;;;;;14.85;49.74;98659.00;4965937;28;98736;-79
2023/11/04 09:27:29;;;;;;;4.80;1.20;;;;;;;14.85;49.76;98661.66;4968484;28;96735;-79
2023/11/04 09:29:58;;;;;;;3.05;1.00;;;;;;;14.63;49.43;98670.63;4968739;28;97044;-80
2023/11/04 09:32:24;;;;;;;4.65;1.02;;;;;;;14.54;49.53;98661.63;4969701;28;98877;-79
2023/11/04 09:34:51;;;;;;;2.88;0.95;;;;;;;14.66;49.80;98660.56;4967560;28;99212;-80
2023/11/04 09:37:17;;;;;;;5.18;1.00;;;;;;;14.48;49.85;98662.13;4965115;28;97612;-78
2023/11/04 09:39:44;;;;;;;3.60;1.27;;;;;;;14.72;48.87;98668.03;4970884;28;96957;-79
2023/11/04 09:42:14;;;;;;;2.80;0.95;;;;;;;14.72;49.30;98653.88;4969889;28;99383;-78
2023/11/04 09:44:40;;;;;;;1.75;0.80;;;;;;;14.56;49.33;98659.69;4970307;28;99236;-77
2023/11/04 09:47:08;;;;;;;4.43;1.00;;;;;;;14.99;48.80;98654.19;4960870;28;97612;-81
2023/11/04 09:49:35;;;;;;;5.53;0.90;;;;;;;14.89;48.51;98642.66;4968705;28;96806;-81
2023/11/04 09:52:02;;;;;;;2.00;0.93;;;;;;;14.84;48.70;98647.53;4970280;28;99263;-79
2023/11/04 09:54:28;;;;;;;2.80;0.82;;;;;;;14.89;48.09;98639.16;4970398;28;99228;-78
2023/11/04 09:56:56;;;;;;;3.90;0.93;;;;;;;14.86;47.60;98629.63;4969007;28;96830;-78
2023/11/04 09:59:23;;;;;;;6.45;1.02;;;;;;;15.04;47.91;98628.03;4965472;28;97676;-78
2023/11/04 10:01:49;;;;;;;1.92;0.95;;;;;;;14.95;48.07;98622.69;4961941;28;99853;-78
2023/11/04 10:04:17;;;;;;;4.43;0.80;;;;;;;14.99;47.68;98621.44;4965153;28;99334;-78
2023/11/04 10:06:45;;;;;;;1.95;0.75;;;;;;;14.97;46.76;98626.03;4964225;28;98500;-77
2023/11/04 10:09:11;;;;;;;2.33;0.70;;;;;;;14.96;46.89;98625.22;4959956;28;98768;-78
2023/11/04 10:11:38;;;;;;;3.63;0.70;;;;;;;15.10;47.16;98627.47;4971473;28;97978;-79
2023/11/04 10:14:08;;;;;;;2.15;0.70;;;;;;;15.13;46.78;98621.06;4976640;28;98204;-78
2023/11/04 10:16:36;;;;;;;3.13;1.00;;;;;;;15.01;46.68;98619.50;4976241;28;97658;-78
2023/11/04 10:19:03;;;;;;;3.25;0.85;;;;;;;15.11;46.50;98617.69;4965482;28;96842;-79
2023/11/04 10:21:32;;;;;;;3.38;0.73;;;;;;;15.06;46.17;98612.78;4957279;28;101967;-79
2023/11/04 10:23:58;;;;;;;2.83;0.90;;;;;;;15.18;45.98;98615.34;4973130;28;99209;-78
2023/11/04 10:26:27;;;;;;;3.55;0.95;;;;;;;15.09;46.66;98609.03;4971138;28;96900;-79
2023/11/04 10:28:54;;;;;;;3.63;0.90;;;;;;;15.25;45.88;98603.19;4976956;28;96969;-78
2023/11/04 10:31:21;;;;;;;1.48;0.70;;;;;;;15.09;45.82;98603.72;4969549;28;99310;-79
2023/11/04 10:33:50;;;;;;;4.55;0.85;;;;;;;14.95;46.83;98604.06;4970738;28;98472;-78
2023/11/04 10:36:17;;;;;;;1.98;0.70;;;;;;;14.83;47.10;98597.16;4964295;28;96836;-78
2023/11/04 10:38:52;;;;;;;1.60;0.60;;;;;;;14.80;47.09;98592.94;4974127;28;96953;-78
2023/11/04 10:41:19;;;;;;;3.30;0.70;;;;;;;14.61;47.59;98592.84;4974825;28;100411;-77
2023/11/04 10:43:54;;;;;;;1.52;0.65;;;;;;;14.58;47.43;98598.41;4973176;28;99156;-77
2023/11/04 10:46:34;;;;;;;2.38;0.50;;;;;;;14.84;47.51;98583.72;4971276;28;96905;-78
2023/11/04 10:49:09;;;;;;;2.13;0.90;;;;;;;15.23;47.06;98581.22;4970011;28;97064;-77
2023/11/04 10:51:43;;;;;;;6.72;1.20;;;;;;;15.44;46.63;98585.44;4974002;28;99069;-78
2023/11/04 10:54:17;;;;;;;7.28;0.88;;;;;;;15.67;45.63;98578.09;4968260;28;98989;-78
2023/11/04 10:56:44;;;;;;;3.67;0.77;;;;;;;15.86;45.12;98578.09;4967683;28;97058;-77
2023/11/04 10:59:16;;;;;;;2.35;0.90;;;;;;;15.73;45.62;98592.69;4973582;28;97359;-77
2023/11/04 11:01:45;;;;;;;1.70;0.60;;;;;;;15.78;45.41;98585.94;4973038;28;98173;-77
2023/11/04 11:04:13;;;;;;;1.08;0.65;;;;;;;15.60;45.47;98579.63;4970478;28;99082;-79
2023/11/04 11:06:40;;;;;;;1.98;0.73;;;;;;;15.74;45.23;98586.38;4973206;28;96835;-80
2023/11/04 11:09:09;;;;;;;0.88;0.60;;;;;;;15.86;44.61;98578.09;4970827;28;96780;-78
2023/11/04 11:11:43;;;;;;;3.72;0.60;;;;;;;15.79;44.26;98581.47;4971801;28;99509;-79
2023/11/04 11:14:12;;;;;;;1.45;0.70;;;;;;;15.86;44.29;98590.59;4970358;28;98958;-78
2023/11/04 11:16:39;;;;;;;5.18;0.60;;;;;;;15.75;44.32;98570.22;4971802;28;97564;-77
2023/11/04 11:19:10;;;;;;;4.97;0.85;;;;;;;15.99;43.74;98567.16;4974769;28;97184;-79
2023/11/04 11:21:49;;;;;;;1.48;0.70;;;;;;;15.82;43.70;98560.72;4970279;28;100972;-79
2023/11/04 11:24:15;;;;;;;1.45;0.50;;;;;;;15.92;43.90;98560.72;4968129;28;97627;-79
2023/11/04 11:26:50;;;;;;;2.20;0.60;;;;;;;15.99;43.36;98548.53;4966605;28;97097;-79
2023/11/04 11:29:21;;;;;;;1.00;0.75;;;;;;;16.23;43.00;98553.41;4968838;28;98420;-78
2023/11/04 11:31:48;;;;;;;1.00;0.40;;;;;;;16.28;42.54;98559.97;4963865;28;98975;-78